createdAt,value
2022-11-27T00:00:20.964Z,45.18
2022-11-27T00:03:26.924Z,44.15
2022-11-27T00:06:35.689Z,42.03
2022-11-27T00:09:44.656Z,42.04
2022-11-27T00:12:51.481Z,39.84
2022-11-27T00:16:00.555Z,42.03
2022-11-27T00:19:07.582Z,64.17
2022-11-27T00:22:13.723Z,53.11
2022-11-27T00:25:23.247Z,47.55
2022-11-27T00:28:32.158Z,39.99
2022-11-27T00:31:40.378Z,44.29
2022-11-27T00:34:46.325Z,44.90
2022-11-27T00:37:52.981Z,44.75
2022-11-27T00:41:10.415Z,69.01
2022-11-27T00:44:17.700Z,68.28
2022-11-27T00:47:23.576Z,48.13
2022-11-27T00:50:32.177Z,56.98
2022-11-27T00:53:38.882Z,57.46
2022-11-27T00:56:48.216Z,56.92
2022-11-27T00:59:54.154Z,54.20
2022-11-27T01:03:01.684Z,50.19
2022-11-27T01:06:10.425Z,50.09
2022-11-27T01:09:18.921Z,47.29
2022-11-27T01:12:27.887Z,44.72
2022-11-27T01:15:34.713Z,42.76
2022-11-27T01:18:43.913Z,41.50
2022-11-27T01:21:51.043Z,45.51
2022-11-27T01:24:56.895Z,44.08
2022-11-27T01:28:06.280Z,43.93
2022-11-27T01:31:17.160Z,41.85
2022-11-27T01:34:23.973Z,42.43
2022-11-27T01:37:29.839Z,41.10
2022-11-27T01:40:36.618Z,42.88
2022-11-27T01:43:49.712Z,49.72
2022-11-27T01:47:01.372Z,55.32
2022-11-27T01:50:19.904Z,59.69
2022-11-27T01:53:27.643Z,61.34
2022-11-27T01:56:34.175Z,59.38
2022-11-27T01:59:45.687Z,45.81
2022-11-27T02:02:52.159Z,38.00
2022-11-27T02:05:58.993Z,39.78
2022-11-27T02:09:05.236Z,43.82
2022-11-27T02:12:25.479Z,41.91
2022-11-27T02:15:50.038Z,44.64
2022-11-27T02:19:10.331Z,51.77
2022-11-27T02:22:38.638Z,56.39
2022-11-27T02:26:20.888Z,55.93
2022-11-27T02:29:37.180Z,55.26
2022-11-27T02:32:54.941Z,57.20
2022-11-27T02:36:12.559Z,56.66
2022-11-27T02:39:28.776Z,54.64
2022-11-27T02:42:43.912Z,53.25
2022-11-27T02:45:55.822Z,50.36
2022-11-27T02:49:14.188Z,48.71
2022-11-27T02:52:23.496Z,47.02
2022-11-27T02:55:37.277Z,45.95
2022-11-27T02:58:45.968Z,46.50
2022-11-27T03:02:01.035Z,47.47
2022-11-27T03:05:13.481Z,49.79
2022-11-27T03:08:32.844Z,50.67
2022-11-27T03:11:41.000Z,50.30
2022-11-27T03:14:51.669Z,45.46
2022-11-27T03:18:20.317Z,43.79
2022-11-27T03:21:38.093Z,43.21
2022-11-27T03:24:44.361Z,41.45
2022-11-27T03:27:59.090Z,43.38
2022-11-27T03:31:05.113Z,42.52
2022-11-27T03:34:16.531Z,41.47
2022-11-27T03:37:24.504Z,44.31
2022-11-27T03:40:46.573Z,44.52
2022-11-27T03:44:09.792Z,42.12
2022-11-27T03:47:41.385Z,43.71
2022-11-27T03:51:10.479Z,41.06
2022-11-27T03:54:37.161Z,42.12
2022-11-27T03:57:57.719Z,42.93
2022-11-27T04:01:14.494Z,40.90
2022-11-27T04:04:20.992Z,39.55
2022-11-27T04:07:30.539Z,39.36
2022-11-27T04:10:36.580Z,39.47
2022-11-27T04:13:43.595Z,40.43
2022-11-27T04:16:49.615Z,40.14
2022-11-27T04:19:56.508Z,41.05
2022-11-27T04:23:05.117Z,43.90
2022-11-27T04:26:12.214Z,44.26
2022-11-27T04:29:18.363Z,44.95
2022-11-27T04:32:25.144Z,44.81
2022-11-27T04:35:31.190Z,43.19
2022-11-27T04:38:40.597Z,43.44
2022-11-27T04:41:46.500Z,47.21
2022-11-27T04:44:53.332Z,49.14
2022-11-27T04:47:59.353Z,50.76
2022-11-27T04:51:06.268Z,54.38
2022-11-27T04:54:14.958Z,46.56
2022-11-27T04:57:21.716Z,51.81
2022-11-27T05:00:30.205Z,53.36
2022-11-27T05:03:37.052Z,55.05
2022-11-27T05:06:43.130Z,59.03
2022-11-27T05:09:52.498Z,59.88
2022-11-27T05:12:58.494Z,57.60
2022-11-27T05:16:06.077Z,57.00
2022-11-27T05:19:14.543Z,58.79
2022-11-27T05:22:21.275Z,56.52
2022-11-27T05:25:29.916Z,57.96
2022-11-27T05:28:36.648Z,58.36
2022-11-27T05:31:43.156Z,58.83
2022-11-27T05:34:50.775Z,56.56
2022-11-27T05:37:56.738Z,54.83
2022-11-27T05:41:07.161Z,53.86
2022-11-27T05:44:15.949Z,51.86
2022-11-27T05:47:22.785Z,54.92
2022-11-27T05:50:28.784Z,57.83
2022-11-27T05:53:36.477Z,58.70
2022-11-27T05:56:44.984Z,57.65
2022-11-27T05:59:51.760Z,55.26
2022-11-27T06:02:58.916Z,53.31
2022-11-27T06:06:10.700Z,54.34
2022-11-27T06:09:16.762Z,54.18
2022-11-27T06:12:26.394Z,55.22
2022-11-27T06:15:32.483Z,57.74
2022-11-27T06:18:39.368Z,57.07
2022-11-27T06:21:46.800Z,60.58
2022-11-27T06:24:54.258Z,59.52
2022-11-27T06:28:02.882Z,55.06
2022-11-27T06:31:17.516Z,55.61
2022-11-27T06:34:24.200Z,56.12
2022-11-27T06:37:31.192Z,55.18
2022-11-27T06:40:37.228Z,54.50
2022-11-27T06:43:47.341Z,51.10
2022-11-27T06:46:53.364Z,46.65
2022-11-27T06:50:00.241Z,46.86
2022-11-27T06:53:06.204Z,45.69
2022-11-27T06:56:17.228Z,56.66
2022-11-27T06:59:25.965Z,58.13
2022-11-27T07:02:32.931Z,53.87
2022-11-27T07:05:40.718Z,50.30
2022-11-27T07:08:47.697Z,49.76
2022-11-27T07:11:53.792Z,50.85
2022-11-27T07:15:04.522Z,54.42
2022-11-27T07:18:10.947Z,56.36
2022-11-27T07:21:19.031Z,60.47
2022-11-27T07:24:25.380Z,63.47
2022-11-27T07:27:32.300Z,62.10
2022-11-27T07:30:41.418Z,60.18
2022-11-27T07:33:49.617Z,59.44
2022-11-27T07:36:55.701Z,59.22
2022-11-27T07:40:03.588Z,59.72
2022-11-27T07:43:09.699Z,60.07
2022-11-27T07:46:23.240Z,60.55
2022-11-27T07:49:29.321Z,63.53
2022-11-27T07:52:41.793Z,60.69
2022-11-27T07:55:48.344Z,56.40
2022-11-27T07:58:55.106Z,57.89
2022-11-27T08:02:03.752Z,60.51
2022-11-27T08:05:13.142Z,54.52
2022-11-27T08:08:21.869Z,49.80
2022-11-27T08:11:33.123Z,52.74
2022-11-27T08:14:39.499Z,54.36
2022-11-27T08:17:49.426Z,56.67
2022-11-27T08:20:55.371Z,48.39
2022-11-27T08:24:02.198Z,46.21
2022-11-27T08:27:08.263Z,42.32
2022-11-27T08:30:15.953Z,37.08
2022-11-27T08:33:24.550Z,35.31
2022-11-27T08:36:31.669Z,34.14
2022-11-27T08:39:37.711Z,34.08
2022-11-27T08:42:44.495Z,35.43
2022-11-27T08:45:50.493Z,36.17
2022-11-27T08:49:01.656Z,41.88
2022-11-27T08:52:08.356Z,41.84
2022-11-27T08:55:15.203Z,42.69
2022-11-27T08:58:21.232Z,39.11
2022-11-27T09:01:31.941Z,40.46
2022-11-27T09:04:40.758Z,38.38
2022-11-27T09:07:47.842Z,41.60
2022-11-27T09:10:53.802Z,39.38
2022-11-27T09:14:01.978Z,37.61
2022-11-27T09:17:07.994Z,37.24
2022-11-27T09:20:17.750Z,35.57
2022-11-27T09:23:27.922Z,39.23
2022-11-27T09:26:35.077Z,39.50
2022-11-27T09:29:41.414Z,31.85
2022-11-27T09:32:48.571Z,30.19
2022-11-27T09:35:58.336Z,32.69
2022-11-27T09:39:05.687Z,30.01
2022-11-27T09:42:31.729Z,30.71
2022-11-27T09:45:47.926Z,29.92
2022-11-27T09:48:58.558Z,30.83
2022-11-27T09:52:23.037Z,28.42
2022-11-27T09:55:41.828Z,29.61
2022-11-27T09:58:59.062Z,30.58
2022-11-27T10:02:05.512Z,31.70
2022-11-27T10:05:23.939Z,32.31
2022-11-27T10:08:51.181Z,37.42
2022-11-27T10:12:16.769Z,62.86
2022-11-27T10:15:41.556Z,34.31
2022-11-27T10:18:57.055Z,31.58
2022-11-27T10:22:21.194Z,30.29
2022-11-27T10:25:43.434Z,30.64
2022-11-27T10:29:03.362Z,32.08
2022-11-27T10:32:47.241Z,34.08
2022-11-27T10:35:52.342Z,35.04
2022-11-27T10:39:05.856Z,30.07
2022-11-27T10:42:26.288Z,29.33
2022-11-27T10:45:47.014Z,27.39
2022-11-27T10:48:54.153Z,25.32
2022-11-27T10:52:01.323Z,25.52
2022-11-27T10:55:30.053Z,23.99
2022-11-27T10:58:49.365Z,18.30
2022-11-27T11:01:57.785Z,22.00
2022-11-27T11:05:44.967Z,21.16
2022-11-27T11:08:51.289Z,16.91
2022-11-27T11:12:10.413Z,17.88
2022-11-27T11:15:20.735Z,18.61
2022-11-27T11:18:32.403Z,16.82
2022-11-27T11:21:45.366Z,16.20
2022-11-27T11:24:56.269Z,16.05
2022-11-27T11:28:02.308Z,14.39
2022-11-27T11:31:21.966Z,15.09
2022-11-27T11:34:33.309Z,18.01
2022-11-27T11:37:50.201Z,18.77
2022-11-27T11:41:09.800Z,17.95
2022-11-27T11:44:27.381Z,21.93
2022-11-27T11:47:37.088Z,26.88
2022-11-27T11:50:56.062Z,34.60
2022-11-27T11:54:28.814Z,32.16
2022-11-27T11:58:16.496Z,31.22
2022-11-27T12:01:58.129Z,34.71
2022-11-27T12:05:27.338Z,29.29
2022-11-27T12:09:03.502Z,26.26
2022-11-27T12:12:32.580Z,25.46
2022-11-27T12:15:52.036Z,25.79
2022-11-27T12:19:32.196Z,26.74
2022-11-27T12:23:25.622Z,27.19
2022-11-27T12:26:59.186Z,28.47
2022-11-27T12:30:26.752Z,28.40
2022-11-27T12:34:03.522Z,31.38
2022-11-27T12:37:34.890Z,33.72
2022-11-27T12:41:15.807Z,35.04
2022-11-27T12:44:36.115Z,37.46
2022-11-27T12:47:50.478Z,37.72
2022-11-27T12:53:52.380Z,29.04
2022-11-27T12:57:05.641Z,35.69
2022-11-27T13:00:22.123Z,50.05
2022-11-27T13:03:40.864Z,33.51
2022-11-27T13:07:01.166Z,30.70
2022-11-27T13:10:25.009Z,32.34
2022-11-27T13:13:40.636Z,32.28
2022-11-27T13:16:55.928Z,30.40
2022-11-27T13:21:59.272Z,34.64
2022-11-27T13:25:08.756Z,35.64
2022-11-27T13:28:38.865Z,31.79
2022-11-27T13:31:53.370Z,29.93
2022-11-27T13:35:05.436Z,33.30
2022-11-27T13:38:24.479Z,32.15
2022-11-27T13:41:40.266Z,35.91
2022-11-27T13:44:59.590Z,39.27
2022-11-27T13:48:27.935Z,37.89
2022-11-27T13:51:39.663Z,36.17
2022-11-27T13:55:00.128Z,35.72
2022-11-27T13:58:09.755Z,35.72
2022-11-27T14:01:22.870Z,36.21
2022-11-27T14:04:32.146Z,37.22
2022-11-27T14:07:45.383Z,40.47
2022-11-27T14:11:01.647Z,36.00
2022-11-27T14:14:22.830Z,33.18
2022-11-27T14:17:39.493Z,32.29
2022-11-27T14:20:55.699Z,34.95
2022-11-27T14:24:06.163Z,38.29
2022-11-27T14:27:23.911Z,39.92
2022-11-27T14:30:38.652Z,43.28
2022-11-27T14:34:13.464Z,47.35
2022-11-27T14:37:27.291Z,43.29
2022-11-27T14:40:33.602Z,39.64
2022-11-27T14:43:44.103Z,38.91
2022-11-27T14:46:51.580Z,35.78
2022-11-27T14:50:00.095Z,34.33
2022-11-27T14:53:06.269Z,33.42
2022-11-27T14:56:13.967Z,32.98
2022-11-27T14:59:25.263Z,33.11
2022-11-27T15:02:32.435Z,32.71
2022-11-27T15:05:42.168Z,32.54
2022-11-27T15:09:03.233Z,32.39
2022-11-27T15:12:25.175Z,38.67
2022-11-27T15:15:42.862Z,39.85
2022-11-27T15:18:59.576Z,40.36
2022-11-27T15:22:08.052Z,41.72
2022-11-27T15:25:38.686Z,40.63
2022-11-27T15:28:54.625Z,39.78
2022-11-27T15:32:03.443Z,40.98
2022-11-27T15:35:17.830Z,39.48
2022-11-27T15:38:24.512Z,38.14
2022-11-27T15:41:32.727Z,41.76
2022-11-27T15:44:39.272Z,50.64
2022-11-27T15:47:49.091Z,45.48
2022-11-27T15:50:55.032Z,42.75
2022-11-27T15:54:01.699Z,36.95
2022-11-27T15:57:07.684Z,33.69
2022-11-27T16:00:16.304Z,31.06
2022-11-27T16:03:24.879Z,31.48
2022-11-27T16:06:31.683Z,33.63
2022-11-27T16:09:40.002Z,40.29
2022-11-27T16:12:46.844Z,46.22
2022-11-27T16:15:52.767Z,44.63
2022-11-27T16:19:06.592Z,46.14
2022-11-27T16:22:13.575Z,42.23
2022-11-27T16:25:21.882Z,39.34
2022-11-27T16:28:29.889Z,41.61
2022-11-27T16:31:37.851Z,41.46
2022-11-27T16:34:46.548Z,40.23
2022-11-27T16:37:53.360Z,39.79
2022-11-27T16:41:04.586Z,40.83
2022-11-27T16:44:15.561Z,40.85
2022-11-27T16:47:22.604Z,39.73
2022-11-27T16:50:32.844Z,38.52
2022-11-27T16:53:41.687Z,39.62
2022-11-27T16:56:48.556Z,40.29
2022-11-27T16:59:55.886Z,42.31
2022-11-27T17:03:02.768Z,46.57
2022-11-27T17:06:15.877Z,45.90
2022-11-27T17:09:24.973Z,44.81
2022-11-27T17:12:30.839Z,43.31
2022-11-27T17:15:40.661Z,41.90
2022-11-27T17:18:48.030Z,42.06
2022-11-27T17:21:58.254Z,43.35
2022-11-27T17:25:05.438Z,44.08
2022-11-27T17:28:12.451Z,47.19
2022-11-27T17:31:21.501Z,49.22
2022-11-27T17:34:28.413Z,51.14
2022-11-27T17:37:37.064Z,57.65
2022-11-27T17:40:44.014Z,59.16
2022-11-27T17:43:51.132Z,61.75
2022-11-27T17:46:57.844Z,60.49
2022-11-27T17:50:03.988Z,62.30
2022-11-27T17:53:13.789Z,60.59
2022-11-27T17:56:22.825Z,59.32
2022-11-27T17:59:30.002Z,63.05
2022-11-27T18:02:37.446Z,63.71
2022-11-27T18:05:44.397Z,61.29
2022-11-27T18:08:55.464Z,62.84
2022-11-27T18:12:02.439Z,64.36
2022-11-27T18:15:10.217Z,63.12
2022-11-27T18:18:17.820Z,63.01
2022-11-27T18:21:27.308Z,67.17
2022-11-27T18:24:36.887Z,71.72
2022-11-27T18:27:42.818Z,72.87
2022-11-27T18:30:49.921Z,72.63
2022-11-27T18:33:58.313Z,66.87
2022-11-27T18:37:05.454Z,60.97
2022-11-27T18:40:15.594Z,60.19
2022-11-27T18:43:22.367Z,65.16
2022-11-27T18:46:28.469Z,71.47
2022-11-27T18:49:35.573Z,70.85
2022-11-27T18:52:41.636Z,64.55
2022-11-27T18:55:52.840Z,59.54
2022-11-27T18:58:59.824Z,56.73
2022-11-27T19:02:07.918Z,59.52
2022-11-27T19:05:13.999Z,54.15
2022-11-27T19:08:20.764Z,52.85
2022-11-27T19:11:32.865Z,51.79
2022-11-27T19:14:40.317Z,54.42
2022-11-27T19:17:46.714Z,55.71
2022-11-27T19:20:55.369Z,59.57
2022-11-27T19:24:05.697Z,58.41
2022-11-27T19:27:15.112Z,56.26
2022-11-27T19:30:21.454Z,57.83
2022-11-27T19:33:28.368Z,56.57
2022-11-27T19:36:38.105Z,54.78
2022-11-27T19:39:45.206Z,55.53
2022-11-27T19:42:59.531Z,60.01
2022-11-27T19:46:18.262Z,61.65
2022-11-27T19:49:24.277Z,56.48
2022-11-27T19:52:31.145Z,51.21
2022-11-27T19:55:37.778Z,51.28
2022-11-27T19:58:47.658Z,51.63
2022-11-27T20:01:53.696Z,54.11
2022-11-27T20:05:05.929Z,55.35
2022-11-27T20:08:11.975Z,55.65
2022-11-27T20:11:22.747Z,54.12
2022-11-27T20:14:31.762Z,55.81
2022-11-27T20:17:38.889Z,56.10
2022-11-27T20:20:45.240Z,58.17
2022-11-27T20:23:55.499Z,59.32
2022-11-27T20:27:02.107Z,59.37
2022-11-27T20:30:13.695Z,59.55
2022-11-27T20:33:21.202Z,59.91
2022-11-27T20:36:29.885Z,62.02
2022-11-27T20:39:37.361Z,60.12
2022-11-27T20:42:45.410Z,59.98
2022-11-27T20:45:55.970Z,62.01
2022-11-27T20:49:03.516Z,61.86
2022-11-27T20:52:11.668Z,62.01
2022-11-27T20:55:20.203Z,62.21
2022-11-27T20:58:27.423Z,63.52
2022-11-27T21:01:39.820Z,64.54
2022-11-27T21:04:48.680Z,64.25
2022-11-27T21:07:57.626Z,63.24
2022-11-27T21:11:14.002Z,62.90
2022-11-27T21:14:21.715Z,62.77
2022-11-27T21:17:31.318Z,63.17
2022-11-27T21:20:38.158Z,64.35
2022-11-27T21:23:45.446Z,62.76
2022-11-27T21:26:52.596Z,63.68
2022-11-27T21:29:59.439Z,65.02
2022-11-27T21:33:08.986Z,64.12
